SWA544 KPHX-KAUS
Flight info
| Callsign | SWA544 |
|---|---|
| Flight time | N/A |
| Altitude | 37000 |
| Route | ECLPS1 PHASE EWM LOWGO DILLO LAIKS4 |
| Aircraft | B737/M-SDE2E3FGHIRWXY/LB1 |
Departure
| Time | 2026-04-30 15:05 |
|---|---|
| Airport | Phoenix Sky Harbor International Airport (KPHX) |
Arrival
| Time | N/A |
|---|---|
| Airport | Austin Bergstrom International Airport (KAUS) |
| Time | Latitude | Longitude | Altitude | Speed | Heading |
|---|---|---|---|---|---|
| 2026-04-30 14:18 | 33.43350 | -111.99396 | 1114 ft | 0 kts | 351° |
| 2026-04-30 14:51 | 33.43329 | -111.99392 | 1115 ft | 3 kts | 349° |
| 2026-04-30 14:52 | 33.43313 | -111.99384 | 1120 ft | 3 kts | 290° |
| 2026-04-30 14:52 | 33.43310 | -111.99336 | 1119 ft | 3 kts | 271° |
| 2026-04-30 14:52 | 33.43312 | -111.99314 | 1122 ft | 3 kts | 220° |
| 2026-04-30 14:53 | 33.43349 | -111.99306 | 1119 ft | 1 kts | 180° |
| 2026-04-30 14:57 | 33.43304 | -111.99315 | 1123 ft | 8 kts | 205° |
| 2026-04-30 14:58 | 33.43284 | -111.99531 | 1122 ft | 17 kts | 271° |
| 2026-04-30 14:58 | 33.43283 | -111.99667 | 1120 ft | 16 kts | 269° |
| 2026-04-30 14:58 | 33.43283 | -111.99925 | 1118 ft | 15 kts | 270° |
| 2026-04-30 14:59 | 33.43283 | -112.00163 | 1124 ft | 14 kts | 270° |
| 2026-04-30 15:00 | 33.43288 | -112.00525 | 1121 ft | 16 kts | 273° |
| 2026-04-30 15:00 | 33.43238 | -112.00772 | 1119 ft | 15 kts | 227° |
| 2026-04-30 15:01 | 33.43215 | -112.01013 | 1125 ft | 15 kts | 270° |
| 2026-04-30 15:01 | 33.43215 | -112.01096 | 1125 ft | 15 kts | 269° |
| 2026-04-30 15:01 | 33.43216 | -112.01390 | 1116 ft | 17 kts | 270° |
| 2026-04-30 15:02 | 33.43216 | -112.01536 | 1124 ft | 18 kts | 269° |
| 2026-04-30 15:02 | 33.43216 | -112.01693 | 1120 ft | 20 kts | 270° |
| 2026-04-30 15:03 | 33.43215 | -112.02227 | 1125 ft | 23 kts | 270° |
| 2026-04-30 15:03 | 33.43215 | -112.02591 | 1120 ft | 21 kts | 269° |
| 2026-04-30 15:04 | 33.43142 | -112.02700 | 1121 ft | 8 kts | 180° |
| 2026-04-30 15:04 | 33.43105 | -112.02089 | 1126 ft | 95 kts | 90° |
| 2026-04-30 15:05 | 33.43078 | -111.98067 | 2224 ft | 184 kts | 90° |
| 2026-04-30 15:06 | 33.43277 | -111.95022 | 3606 ft | 203 kts | 85° |
| 2026-04-30 15:06 | 33.43478 | -111.91253 | 4360 ft | 245 kts | 86° |
| 2026-04-30 15:07 | 33.43278 | -111.87069 | 5571 ft | 271 kts | 118° |
| 2026-04-30 15:07 | 33.40729 | -111.83719 | 7338 ft | 280 kts | 137° |
| 2026-04-30 15:08 | 33.37857 | -111.80468 | 9096 ft | 288 kts | 138° |
| 2026-04-30 15:08 | 33.33247 | -111.75274 | 10691 ft | 335 kts | 137° |
| 2026-04-30 15:09 | 33.29738 | -111.71192 | 11579 ft | 365 kts | 137° |
| 2026-04-30 15:09 | 33.26052 | -111.66911 | 13125 ft | 374 kts | 139° |
| 2026-04-30 15:10 | 33.22257 | -111.62526 | 14505 ft | 385 kts | 139° |
| 2026-04-30 15:11 | 33.14411 | -111.53488 | 17234 ft | 404 kts | 140° |
| 2026-04-30 15:11 | 33.10311 | -111.48773 | 18515 ft | 414 kts | 140° |
| 2026-04-30 15:12 | 33.04528 | -111.40938 | 20372 ft | 430 kts | 128° |
| 2026-04-30 15:13 | 33.01304 | -111.34846 | 21489 ft | 439 kts | 127° |
| 2026-04-30 15:14 | 32.94644 | -111.22432 | 23594 ft | 453 kts | 129° |
| 2026-04-30 15:14 | 32.89410 | -111.12927 | 24869 ft | 462 kts | 129° |
| 2026-04-30 15:16 | 32.80412 | -110.96647 | 26843 ft | 478 kts | 130° |
| 2026-04-30 15:17 | 32.73027 | -110.83329 | 28267 ft | 490 kts | 130° |
| 2026-04-30 15:18 | 32.63824 | -110.65940 | 29697 ft | 519 kts | 114° |
| 2026-04-30 15:19 | 32.61124 | -110.53363 | 30702 ft | 526 kts | 109° |